sensor_id;sensor_type;location;lat;lon;timestamp;temperature;humidity
48988;DHT22;34799;51.440;-2.534;2023-02-01T00:01:06;6.70;99.90
48988;DHT22;34799;51.440;-2.534;2023-02-01T00:03:34;6.70;99.90
48988;DHT22;34799;51.440;-2.534;2023-02-01T00:06:02;7.30;99.90
48988;DHT22;34799;51.440;-2.534;2023-02-01T00:08:29;6.70;99.90
48988;DHT22;34799;51.440;-2.534;2023-02-01T00:11:08;6.60;99.90
48988;DHT22;34799;51.440;-2.534;2023-02-01T00:13:38;6.70;99.90
48988;DHT22;34799;51.440;-2.534;2023-02-01T00:16:14;6.60;99.90
48988;DHT22;34799;51.440;-2.534;2023-02-01T00:18:47;6.60;99.90
48988;DHT22;34799;51.440;-2.534;2023-02-01T00:21:15;6.90;99.90
48988;DHT22;34799;51.440;-2.534;2023-02-01T00:23:43;6.60;99.90
48988;DHT22;34799;51.440;-2.534;2023-02-01T00:26:15;7.00;99.90
48988;DHT22;34799;51.440;-2.534;2023-02-01T00:28:42;6.60;99.90
48988;DHT22;34799;51.440;-2.534;2023-02-01T00:31:09;6.60;99.90
48988;DHT22;34799;51.440;-2.534;2023-02-01T00:33:36;6.90;99.90
48988;DHT22;34799;51.440;-2.534;2023-02-01T00:36:07;6.60;99.90
48988;DHT22;34799;51.440;-2.534;2023-02-01T00:38:37;6.60;99.90
48988;DHT22;34799;51.440;-2.534;2023-02-01T00:43:41;6.50;99.90
48988;DHT22;34799;51.440;-2.534;2023-02-01T00:46:08;6.50;99.90
48988;DHT22;34799;51.440;-2.534;2023-02-01T00:48:35;6.60;99.90
48988;DHT22;34799;51.440;-2.534;2023-02-01T00:51:09;6.60;99.90
48988;DHT22;34799;51.440;-2.534;2023-02-01T00:53:37;6.60;99.90
48988;DHT22;34799;51.440;-2.534;2023-02-01T00:56:04;6.60;99.90
48988;DHT22;34799;51.440;-2.534;2023-02-01T00:58:34;6.60;99.90
48988;DHT22;34799;51.440;-2.534;2023-02-01T01:01:02;6.60;99.90
48988;DHT22;34799;51.440;-2.534;2023-02-01T01:03:31;6.60;99.90
48988;DHT22;34799;51.440;-2.534;2023-02-01T01:06:05;6.60;99.90
48988;DHT22;34799;51.440;-2.534;2023-02-01T01:08:33;6.60;99.90
48988;DHT22;34799;51.440;-2.534;2023-02-01T01:11:16;6.60;99.90
48988;DHT22;34799;51.440;-2.534;2023-02-01T01:13:45;6.60;99.90
48988;DHT22;34799;51.440;-2.534;2023-02-01T01:16:13;6.80;99.90
48988;DHT22;34799;51.440;-2.534;2023-02-01T01:18:41;7.10;99.90
48988;DHT22;34799;51.440;-2.534;2023-02-01T01:21:10;6.70;99.90
48988;DHT22;34799;51.440;-2.534;2023-02-01T01:23:39;6.90;99.90
48988;DHT22;34799;51.440;-2.534;2023-02-01T01:26:08;7.80;99.90
48988;DHT22;34799;51.440;-2.534;2023-02-01T01:28:36;6.70;99.90
48988;DHT22;34799;51.440;-2.534;2023-02-01T01:31:08;6.80;99.90
48988;DHT22;34799;51.440;-2.534;2023-02-01T01:33:36;6.70;99.90
48988;DHT22;34799;51.440;-2.534;2023-02-01T01:36:08;6.70;99.90
48988;DHT22;34799;51.440;-2.534;2023-02-01T01:38:41;6.70;99.90
48988;DHT22;34799;51.440;-2.534;2023-02-01T01:41:16;6.70;99.90
48988;DHT22;34799;51.440;-2.534;2023-02-01T01:44:05;6.70;99.90
48988;DHT22;34799;51.440;-2.534;2023-02-01T01:46:37;6.60;99.90
48988;DHT22;34799;51.440;-2.534;2023-02-01T01:49:14;7.30;99.90
48988;DHT22;34799;51.440;-2.534;2023-02-01T01:51:58;6.70;99.90
48988;DHT22;34799;51.440;-2.534;2023-02-01T01:54:34;6.70;99.90
48988;DHT22;34799;51.440;-2.534;2023-02-01T01:57:18;6.80;99.90
48988;DHT22;34799;51.440;-2.534;2023-02-01T01:59:52;6.80;99.90
48988;DHT22;34799;51.440;-2.534;2023-02-01T02:02:20;6.80;99.90
48988;DHT22;34799;51.440;-2.534;2023-02-01T02:04:48;6.80;99.90
48988;DHT22;34799;51.440;-2.534;2023-02-01T02:07:19;6.90;99.90
48988;DHT22;34799;51.440;-2.534;2023-02-01T02:09:49;6.90;99.90
48988;DHT22;34799;51.440;-2.534;2023-02-01T02:12:26;6.90;99.90
48988;DHT22;34799;51.440;-2.534;2023-02-01T02:14:53;6.90;99.90
48988;DHT22;34799;51.440;-2.534;2023-02-01T02:34:27;6.90;99.90
48988;DHT22;34799;51.440;-2.534;2023-02-01T02:46:14;6.90;99.90
48988;DHT22;34799;51.440;-2.534;2023-02-01T02:49:11;7.10;99.90
48988;DHT22;34799;51.440;-2.534;2023-02-01T02:51:41;7.00;99.90
48988;DHT22;34799;51.440;-2.534;2023-02-01T02:54:34;7.60;99.90
48988;DHT22;34799;51.440;-2.534;2023-02-01T02:57:26;7.60;99.90
48988;DHT22;34799;51.440;-2.534;2023-02-01T03:00:17;7.00;99.90
48988;DHT22;34799;51.440;-2.534;2023-02-01T03:03:04;7.00;99.90
48988;DHT22;34799;51.440;-2.534;2023-02-01T03:05:50;7.00;99.90
48988;DHT22;34799;51.440;-2.534;2023-02-01T03:08:21;7.30;99.90
48988;DHT22;34799;51.440;-2.534;2023-02-01T03:11:12;7.00;99.90
48988;DHT22;34799;51.440;-2.534;2023-02-01T03:16:23;8.00;99.90
48988;DHT22;34799;51.440;-2.534;2023-02-01T03:19:02;7.10;99.90
48988;DHT22;34799;51.440;-2.534;2023-02-01T03:24:32;7.30;99.90
48988;DHT22;34799;51.440;-2.534;2023-02-01T03:27:30;7.00;99.90
48988;DHT22;34799;51.440;-2.534;2023-02-01T03:32:51;7.10;99.90
48988;DHT22;34799;51.440;-2.534;2023-02-01T03:35:55;7.30;99.90
48988;DHT22;34799;51.440;-2.534;2023-02-01T03:41:35;7.00;99.90
48988;DHT22;34799;51.440;-2.534;2023-02-01T03:47:17;6.90;99.90
48988;DHT22;34799;51.440;-2.534;2023-02-01T03:50:03;7.00;99.90
48988;DHT22;34799;51.440;-2.534;2023-02-01T03:52:40;7.00;99.90
48988;DHT22;34799;51.440;-2.534;2023-02-01T03:55:10;7.90;99.90
48988;DHT22;34799;51.440;-2.534;2023-02-01T03:57:46;7.00;99.90
48988;DHT22;34799;51.440;-2.534;2023-02-01T04:00:21;7.00;99.90
48988;DHT22;34799;51.440;-2.534;2023-02-01T04:02:54;7.10;99.90
48988;DHT22;34799;51.440;-2.534;2023-02-01T04:05:22;7.40;99.90
48988;DHT22;34799;51.440;-2.534;2023-02-01T04:07:59;7.20;99.90
48988;DHT22;34799;51.440;-2.534;2023-02-01T04:10:28;7.20;99.90
48988;DHT22;34799;51.440;-2.534;2023-02-01T04:12:55;7.20;99.90
48988;DHT22;34799;51.440;-2.534;2023-02-01T04:15:22;8.00;99.90
48988;DHT22;34799;51.440;-2.534;2023-02-01T04:17:49;7.20;99.90
48988;DHT22;34799;51.440;-2.534;2023-02-01T04:20:16;7.20;99.90
48988;DHT22;34799;51.440;-2.534;2023-02-01T04:22:43;7.20;99.90
48988;DHT22;34799;51.440;-2.534;2023-02-01T04:25:12;8.50;99.90
48988;DHT22;34799;51.440;-2.534;2023-02-01T04:27:39;7.10;99.90
48988;DHT22;34799;51.440;-2.534;2023-02-01T04:30:05;8.10;99.90
48988;DHT22;34799;51.440;-2.534;2023-02-01T04:32:37;7.20;99.90
48988;DHT22;34799;51.440;-2.534;2023-02-01T04:35:06;7.30;99.90
48988;DHT22;34799;51.440;-2.534;2023-02-01T04:37:33;7.10;99.90
48988;DHT22;34799;51.440;-2.534;2023-02-01T04:40:00;7.10;99.90
48988;DHT22;34799;51.440;-2.534;2023-02-01T04:42:28;7.10;99.90
48988;DHT22;34799;51.440;-2.534;2023-02-01T04:44:55;8.00;99.90
48988;DHT22;34799;51.440;-2.534;2023-02-01T04:47:23;7.80;99.90
48988;DHT22;34799;51.440;-2.534;2023-02-01T04:49:50;7.10;99.90
48988;DHT22;34799;51.440;-2.534;2023-02-01T04:52:17;7.20;99.90
48988;DHT22;34799;51.440;-2.534;2023-02-01T04:54:44;7.20;99.90
48988;DHT22;34799;51.440;-2.534;2023-02-01T04:57:11;8.10;99.90
48988;DHT22;34799;51.440;-2.534;2023-02-01T04:59:42;7.70;99.90
48988;DHT22;34799;51.440;-2.534;2023-02-01T05:02:09;7.20;99.90
48988;DHT22;34799;51.440;-2.534;2023-02-01T05:04:36;8.10;99.90
48988;DHT22;34799;51.440;-2.534;2023-02-01T05:07:03;7.20;99.90
48988;DHT22;34799;51.440;-2.534;2023-02-01T05:09:30;7.20;99.90
48988;DHT22;34799;51.440;-2.534;2023-02-01T05:11:57;7.30;99.90
48988;DHT22;34799;51.440;-2.534;2023-02-01T05:14:44;8.20;99.90
48988;DHT22;34799;51.440;-2.534;2023-02-01T05:17:11;7.30;99.90
48988;DHT22;34799;51.440;-2.534;2023-02-01T05:19:38;8.00;99.90
48988;DHT22;34799;51.440;-2.534;2023-02-01T05:22:05;7.40;99.90
48988;DHT22;34799;51.440;-2.534;2023-02-01T05:24:33;7.40;99.90
48988;DHT22;34799;51.440;-2.534;2023-02-01T05:27:00;7.40;99.90
48988;DHT22;34799;51.440;-2.534;2023-02-01T05:29:29;7.40;99.90
48988;DHT22;34799;51.440;-2.534;2023-02-01T05:31:55;7.40;99.90
48988;DHT22;34799;51.440;-2.534;2023-02-01T05:34:25;7.40;99.90
48988;DHT22;34799;51.440;-2.534;2023-02-01T05:36:52;7.40;99.90
48988;DHT22;34799;51.440;-2.534;2023-02-01T05:39:19;7.50;99.90
48988;DHT22;34799;51.440;-2.534;2023-02-01T05:41:47;7.40;99.90
48988;DHT22;34799;51.440;-2.534;2023-02-01T05:44:14;7.40;99.90
48988;DHT22;34799;51.440;-2.534;2023-02-01T05:46:41;7.40;99.90
48988;DHT22;34799;51.440;-2.534;2023-02-01T05:49:08;8.00;99.90
48988;DHT22;34799;51.440;-2.534;2023-02-01T05:51:35;8.10;99.90
48988;DHT22;34799;51.440;-2.534;2023-02-01T05:54:02;7.30;99.90
48988;DHT22;34799;51.440;-2.534;2023-02-01T05:56:29;7.30;99.90
48988;DHT22;34799;51.440;-2.534;2023-02-01T05:58:57;7.90;99.90
48988;DHT22;34799;51.440;-2.534;2023-02-01T06:01:24;7.90;99.90
48988;DHT22;34799;51.440;-2.534;2023-02-01T06:03:51;7.20;99.90
48988;DHT22;34799;51.440;-2.534;2023-02-01T06:06:18;8.10;99.90
48988;DHT22;34799;51.440;-2.534;2023-02-01T06:08:46;7.20;99.90
48988;DHT22;34799;51.440;-2.534;2023-02-01T06:11:13;7.20;99.90
48988;DHT22;34799;51.440;-2.534;2023-02-01T06:13:57;8.00;99.90
48988;DHT22;34799;51.440;-2.534;2023-02-01T06:16:26;7.40;99.90
48988;DHT22;34799;51.440;-2.534;2023-02-01T06:18:53;7.20;99.90
48988;DHT22;34799;51.440;-2.534;2023-02-01T06:21:20;7.20;99.90
48988;DHT22;34799;51.440;-2.534;2023-02-01T06:23:52;7.20;99.90
48988;DHT22;34799;51.440;-2.534;2023-02-01T06:26:20;7.20;99.90
48988;DHT22;34799;51.440;-2.534;2023-02-01T06:28:47;7.10;99.90
48988;DHT22;34799;51.440;-2.534;2023-02-01T06:31:14;7.90;99.90
48988;DHT22;34799;51.440;-2.534;2023-02-01T06:33:42;7.40;99.90
48988;DHT22;34799;51.440;-2.534;2023-02-01T06:36:11;7.70;99.90
48988;DHT22;34799;51.440;-2.534;2023-02-01T06:38:42;7.10;99.90
48988;DHT22;34799;51.440;-2.534;2023-02-01T06:41:09;7.10;99.90
48988;DHT22;34799;51.440;-2.534;2023-02-01T06:43:37;7.40;99.90
48988;DHT22;34799;51.440;-2.534;2023-02-01T06:46:07;7.10;99.90
48988;DHT22;34799;51.440;-2.534;2023-02-01T06:48:35;7.10;99.90
48988;DHT22;34799;51.440;-2.534;2023-02-01T06:51:02;7.50;99.90
48988;DHT22;34799;51.440;-2.534;2023-02-01T06:53:30;6.90;99.90
48988;DHT22;34799;51.440;-2.534;2023-02-01T06:56:00;7.90;99.90
48988;DHT22;34799;51.440;-2.534;2023-02-01T06:58:32;7.10;99.90
48988;DHT22;34799;51.440;-2.534;2023-02-01T07:01:07;7.80;99.90
48988;DHT22;34799;51.440;-2.534;2023-02-01T07:03:35;7.10;99.90
48988;DHT22;34799;51.440;-2.534;2023-02-01T07:06:03;7.00;99.90
48988;DHT22;34799;51.440;-2.534;2023-02-01T07:08:34;7.00;99.90
48988;DHT22;34799;51.440;-2.534;2023-02-01T07:11:10;7.40;99.90
48988;DHT22;34799;51.440;-2.534;2023-02-01T07:13:38;7.80;99.90
48988;DHT22;34799;51.440;-2.534;2023-02-01T07:16:14;7.80;99.90
48988;DHT22;34799;51.440;-2.534;2023-02-01T07:18:43;7.00;99.90
48988;DHT22;34799;51.440;-2.534;2023-02-01T07:21:10;7.00;99.90
48988;DHT22;34799;51.440;-2.534;2023-02-01T07:23:38;7.20;99.90
48988;DHT22;34799;51.440;-2.534;2023-02-01T07:26:07;7.90;99.90
48988;DHT22;34799;51.440;-2.534;2023-02-01T07:28:36;7.60;99.90
48988;DHT22;34799;51.440;-2.534;2023-02-01T07:31:06;7.10;99.90
48988;DHT22;34799;51.440;-2.534;2023-02-01T07:33:33;8.00;99.90
48988;DHT22;34799;51.440;-2.534;2023-02-01T07:36:04;7.10;99.90
48988;DHT22;34799;51.440;-2.534;2023-02-01T07:38:32;7.10;99.90
48988;DHT22;34799;51.440;-2.534;2023-02-01T07:41:00;7.70;99.90
48988;DHT22;34799;51.440;-2.534;2023-02-01T07:43:29;8.00;99.90
48988;DHT22;34799;51.440;-2.534;2023-02-01T07:45:56;7.20;99.90
48988;DHT22;34799;51.440;-2.534;2023-02-01T07:48:25;7.90;99.90
48988;DHT22;34799;51.440;-2.534;2023-02-01T07:50:59;7.20;99.90
48988;DHT22;34799;51.440;-2.534;2023-02-01T07:53:26;7.30;99.90
48988;DHT22;34799;51.440;-2.534;2023-02-01T07:55:56;7.30;99.90
48988;DHT22;34799;51.440;-2.534;2023-02-01T07:58:24;7.80;99.90
48988;DHT22;34799;51.440;-2.534;2023-02-01T08:00:53;7.30;99.90
48988;DHT22;34799;51.440;-2.534;2023-02-01T08:03:39;7.70;99.90
48988;DHT22;34799;51.440;-2.534;2023-02-01T08:06:08;7.20;99.90
48988;DHT22;34799;51.440;-2.534;2023-02-01T08:08:35;7.10;99.90
48988;DHT22;34799;51.440;-2.534;2023-02-01T08:11:05;7.10;99.90
48988;DHT22;34799;51.440;-2.534;2023-02-01T08:13:34;7.10;99.90
48988;DHT22;34799;51.440;-2.534;2023-02-01T08:16:03;7.20;99.90
48988;DHT22;34799;51.440;-2.534;2023-02-01T08:18:31;7.20;99.90
48988;DHT22;34799;51.440;-2.534;2023-02-01T08:21:03;7.30;99.90
48988;DHT22;34799;51.440;-2.534;2023-02-01T08:23:31;7.30;99.90
48988;DHT22;34799;51.440;-2.534;2023-02-01T08:28:46;7.40;99.90
48988;DHT22;34799;51.440;-2.534;2023-02-01T08:31:17;7.30;99.90
48988;DHT22;34799;51.440;-2.534;2023-02-01T08:33:49;7.40;99.90
48988;DHT22;34799;51.440;-2.534;2023-02-01T08:36:17;7.50;99.90
48988;DHT22;34799;51.440;-2.534;2023-02-01T08:38:44;7.50;99.90
48988;DHT22;34799;51.440;-2.534;2023-02-01T08:41:16;7.70;99.90
48988;DHT22;34799;51.440;-2.534;2023-02-01T08:43:44;7.80;99.90
48988;DHT22;34799;51.440;-2.534;2023-02-01T08:46:12;7.50;99.90
48988;DHT22;34799;51.440;-2.534;2023-02-01T08:48:40;7.50;99.90
48988;DHT22;34799;51.440;-2.534;2023-02-01T08:51:11;7.50;99.90
48988;DHT22;34799;51.440;-2.534;2023-02-01T08:53:39;7.50;99.90
48988;DHT22;34799;51.440;-2.534;2023-02-01T08:56:10;8.30;99.90
48988;DHT22;34799;51.440;-2.534;2023-02-01T08:58:38;8.30;99.90
48988;DHT22;34799;51.440;-2.534;2023-02-01T09:01:11;8.30;99.90
48988;DHT22;34799;51.440;-2.534;2023-02-01T09:03:39;7.70;99.90
48988;DHT22;34799;51.440;-2.534;2023-02-01T09:06:10;7.80;99.90
48988;DHT22;34799;51.440;-2.534;2023-02-01T09:08:38;8.50;99.90
48988;DHT22;34799;51.440;-2.534;2023-02-01T09:11:11;8.30;99.90
48988;DHT22;34799;51.440;-2.534;2023-02-01T09:13:38;7.80;99.90
48988;DHT22;34799;51.440;-2.534;2023-02-01T09:16:06;8.30;99.90
48988;DHT22;34799;51.440;-2.534;2023-02-01T09:18:34;7.80;99.90
48988;DHT22;34799;51.440;-2.534;2023-02-01T09:21:08;7.90;99.90
48988;DHT22;34799;51.440;-2.534;2023-02-01T09:23:36;8.00;99.90
48988;DHT22;34799;51.440;-2.534;2023-02-01T09:26:04;8.00;99.90
48988;DHT22;34799;51.440;-2.534;2023-02-01T09:28:32;8.00;99.90
48988;DHT22;34799;51.440;-2.534;2023-02-01T09:31:00;8.50;99.90
48988;DHT22;34799;51.440;-2.534;2023-02-01T09:33:29;8.10;99.90
48988;DHT22;34799;51.440;-2.534;2023-02-01T09:35:58;8.20;99.90
48988;DHT22;34799;51.440;-2.534;2023-02-01T09:38:25;8.70;99.90
48988;DHT22;34799;51.440;-2.534;2023-02-01T09:40:56;8.20;99.90
48988;DHT22;34799;51.440;-2.534;2023-02-01T09:43:38;8.70;99.90
48988;DHT22;34799;51.440;-2.534;2023-02-01T09:46:28;8.30;99.90
48988;DHT22;34799;51.440;-2.534;2023-02-01T09:49:09;8.30;99.90
48988;DHT22;34799;51.440;-2.534;2023-02-01T09:51:41;8.30;99.90
48988;DHT22;34799;51.440;-2.534;2023-02-01T09:54:18;8.60;99.90
48988;DHT22;34799;51.440;-2.534;2023-02-01T10:01:55;8.50;99.90
48988;DHT22;34799;51.440;-2.534;2023-02-01T10:04:23;9.10;99.90
48988;DHT22;34799;51.440;-2.534;2023-02-01T10:07:02;8.60;99.90
48988;DHT22;34799;51.440;-2.534;2023-02-01T10:17:52;8.80;99.90
48988;DHT22;34799;51.440;-2.534;2023-02-01T10:20:44;8.80;99.90
48988;DHT22;34799;51.440;-2.534;2023-02-01T10:26:25;8.90;99.90
48988;DHT22;34799;51.440;-2.534;2023-02-01T10:29:02;8.90;99.90
48988;DHT22;34799;51.440;-2.534;2023-02-01T10:31:35;8.90;99.90
48988;DHT22;34799;51.440;-2.534;2023-02-01T10:34:21;8.90;99.90
48988;DHT22;34799;51.440;-2.534;2023-02-01T10:36:59;9.00;99.90
48988;DHT22;34799;51.440;-2.534;2023-02-01T10:39:27;9.00;99.90
48988;DHT22;34799;51.440;-2.534;2023-02-01T10:41:55;9.10;99.90
48988;DHT22;34799;51.440;-2.534;2023-02-01T10:44:28;9.20;99.90
48988;DHT22;34799;51.440;-2.534;2023-02-01T10:46:56;9.20;99.90
48988;DHT22;34799;51.440;-2.534;2023-02-01T10:49:29;9.30;99.90
48988;DHT22;34799;51.440;-2.534;2023-02-01T10:52:10;9.30;99.90
48988;DHT22;34799;51.440;-2.534;2023-02-01T10:54:39;9.20;99.90
48988;DHT22;34799;51.440;-2.534;2023-02-01T10:57:24;9.30;99.90
48988;DHT22;34799;51.440;-2.534;2023-02-01T10:59:53;9.30;99.90
48988;DHT22;34799;51.440;-2.534;2023-02-01T11:02:33;9.50;99.90
48988;DHT22;34799;51.440;-2.534;2023-02-01T11:05:08;9.50;99.90
48988;DHT22;34799;51.440;-2.534;2023-02-01T11:07:47;9.50;99.90
48988;DHT22;34799;51.440;-2.534;2023-02-01T11:13:04;9.60;99.90
48988;DHT22;34799;51.440;-2.534;2023-02-01T11:15:31;9.60;99.90
48988;DHT22;34799;51.440;-2.534;2023-02-01T11:18:18;9.60;99.90
48988;DHT22;34799;51.440;-2.534;2023-02-01T11:20:46;9.60;99.90
48988;DHT22;34799;51.440;-2.534;2023-02-01T11:23:22;9.70;99.90
48988;DHT22;34799;51.440;-2.534;2023-02-01T11:25:57;9.80;99.90
48988;DHT22;34799;51.440;-2.534;2023-02-01T11:28:33;9.90;99.90
48988;DHT22;34799;51.440;-2.534;2023-02-01T11:31:05;8.30;99.90
48988;DHT22;34799;51.440;-2.534;2023-02-01T11:33:38;9.90;99.90
48988;DHT22;34799;51.440;-2.534;2023-02-01T11:36:15;10.00;99.90
48988;DHT22;34799;51.440;-2.534;2023-02-01T11:44:01;10.00;99.90
48988;DHT22;34799;51.440;-2.534;2023-02-01T11:46:31;10.00;99.90
48988;DHT22;34799;51.440;-2.534;2023-02-01T11:49:23;9.90;99.90
48988;DHT22;34799;51.440;-2.534;2023-02-01T12:00:20;9.80;99.90
48988;DHT22;34799;51.440;-2.534;2023-02-01T12:03:32;9.70;99.90
48988;DHT22;34799;51.440;-2.534;2023-02-01T12:20:21;9.90;99.90
48988;DHT22;34799;51.440;-2.534;2023-02-01T12:23:18;9.90;99.90
48988;DHT22;34799;51.440;-2.534;2023-02-01T12:28:48;10.00;99.90
48988;DHT22;34799;51.440;-2.534;2023-02-01T12:40:20;10.00;99.90
48988;DHT22;34799;51.440;-2.534;2023-02-01T12:43:19;9.90;99.90
48988;DHT22;34799;51.440;-2.534;2023-02-01T12:45:58;9.90;99.90
48988;DHT22;34799;51.440;-2.534;2023-02-01T12:48:43;9.90;99.90
48988;DHT22;34799;51.440;-2.534;2023-02-01T12:51:20;9.90;99.90
48988;DHT22;34799;51.440;-2.534;2023-02-01T12:53:55;9.90;99.90
48988;DHT22;34799;51.440;-2.534;2023-02-01T12:56:41;10.00;99.90
48988;DHT22;34799;51.440;-2.534;2023-02-01T12:59:22;10.10;99.90
48988;DHT22;34799;51.440;-2.534;2023-02-01T13:02:14;10.00;99.90
48988;DHT22;34799;51.440;-2.534;2023-02-01T13:05:14;10.00;99.90
48988;DHT22;34799;51.440;-2.534;2023-02-01T13:10:39;10.00;99.90
48988;DHT22;34799;51.440;-2.534;2023-02-01T13:16:15;9.90;99.90
48988;DHT22;34799;51.440;-2.534;2023-02-01T13:18:49;10.00;99.90
48988;DHT22;34799;51.440;-2.534;2023-02-01T13:21:31;10.10;99.90
48988;DHT22;34799;51.440;-2.534;2023-02-01T13:23:58;10.10;99.90
48988;DHT22;34799;51.440;-2.534;2023-02-01T13:26:25;10.20;99.90
48988;DHT22;34799;51.440;-2.534;2023-02-01T13:29:06;10.10;99.90
48988;DHT22;34799;51.440;-2.534;2023-02-01T13:45:16;9.90;99.90
48988;DHT22;34799;51.440;-2.534;2023-02-01T13:47:46;9.90;99.90
48988;DHT22;34799;51.440;-2.534;2023-02-01T13:50:35;10.00;99.90
48988;DHT22;34799;51.440;-2.534;2023-02-01T13:53:16;9.90;99.90
48988;DHT22;34799;51.440;-2.534;2023-02-01T13:55:45;10.00;99.90
48988;DHT22;34799;51.440;-2.534;2023-02-01T13:58:42;10.00;99.90
48988;DHT22;34799;51.440;-2.534;2023-02-01T14:03:56;10.10;99.90
48988;DHT22;34799;51.440;-2.534;2023-02-01T14:11:53;10.30;99.90
48988;DHT22;34799;51.440;-2.534;2023-02-01T14:19:30;10.00;99.90
48988;DHT22;34799;51.440;-2.534;2023-02-01T14:24:56;10.00;99.90
48988;DHT22;34799;51.440;-2.534;2023-02-01T14:27:28;10.00;99.90
48988;DHT22;34799;51.440;-2.534;2023-02-01T14:30:05;10.10;99.90
48988;DHT22;34799;51.440;-2.534;2023-02-01T14:32:37;10.10;99.90
48988;DHT22;34799;51.440;-2.534;2023-02-01T14:35:12;10.10;99.90
48988;DHT22;34799;51.440;-2.534;2023-02-01T14:37:44;10.20;99.90
48988;DHT22;34799;51.440;-2.534;2023-02-01T14:50:34;10.00;99.90
48988;DHT22;34799;51.440;-2.534;2023-02-01T15:01:15;10.10;99.90
48988;DHT22;34799;51.440;-2.534;2023-02-01T15:03:51;10.10;99.90
48988;DHT22;34799;51.440;-2.534;2023-02-01T15:06:23;10.10;99.90
48988;DHT22;34799;51.440;-2.534;2023-02-01T15:08:55;10.10;99.90
48988;DHT22;34799;51.440;-2.534;2023-02-01T15:11:24;10.10;99.90
48988;DHT22;34799;51.440;-2.534;2023-02-01T15:13:52;10.10;99.90
48988;DHT22;34799;51.440;-2.534;2023-02-01T15:16:24;10.20;99.90
48988;DHT22;34799;51.440;-2.534;2023-02-01T15:19:07;10.00;99.90
48988;DHT22;34799;51.440;-2.534;2023-02-01T15:21:48;10.00;99.90
48988;DHT22;34799;51.440;-2.534;2023-02-01T15:26:49;9.90;99.90
48988;DHT22;34799;51.440;-2.534;2023-02-01T15:29:19;9.90;99.90
48988;DHT22;34799;51.440;-2.534;2023-02-01T15:31:49;9.90;99.90
48988;DHT22;34799;51.440;-2.534;2023-02-01T15:34:19;10.00;99.90
48988;DHT22;34799;51.440;-2.534;2023-02-01T15:36:46;9.90;99.90
48988;DHT22;34799;51.440;-2.534;2023-02-01T15:39:28;9.90;99.90
48988;DHT22;34799;51.440;-2.534;2023-02-01T15:41:59;9.80;99.90
48988;DHT22;34799;51.440;-2.534;2023-02-01T15:44:41;9.80;99.90
48988;DHT22;34799;51.440;-2.534;2023-02-01T15:47:29;9.80;99.90
48988;DHT22;34799;51.440;-2.534;2023-02-01T15:49:59;9.70;99.90
48988;DHT22;34799;51.440;-2.534;2023-02-01T15:52:37;9.80;99.90
48988;DHT22;34799;51.440;-2.534;2023-02-01T15:55:22;9.70;99.90
48988;DHT22;34799;51.440;-2.534;2023-02-01T15:57:52;9.70;99.90
48988;DHT22;34799;51.440;-2.534;2023-02-01T16:00:26;9.60;99.90
48988;DHT22;34799;51.440;-2.534;2023-02-01T16:03:02;9.60;99.90
48988;DHT22;34799;51.440;-2.534;2023-02-01T16:05:39;9.50;99.90
48988;DHT22;34799;51.440;-2.534;2023-02-01T16:08:21;9.50;99.90
48988;DHT22;34799;51.440;-2.534;2023-02-01T16:10:51;9.50;99.90
48988;DHT22;34799;51.440;-2.534;2023-02-01T16:13:21;9.50;99.90
48988;DHT22;34799;51.440;-2.534;2023-02-01T16:15:48;9.40;99.90
48988;DHT22;34799;51.440;-2.534;2023-02-01T16:18:16;9.40;99.90
48988;DHT22;34799;51.440;-2.534;2023-02-01T16:20:45;9.40;99.90
48988;DHT22;34799;51.440;-2.534;2023-02-01T16:23:14;9.40;99.90
48988;DHT22;34799;51.440;-2.534;2023-02-01T16:25:41;9.30;99.90
48988;DHT22;34799;51.440;-2.534;2023-02-01T16:28:09;9.30;99.90
48988;DHT22;34799;51.440;-2.534;2023-02-01T16:30:36;9.20;99.90
48988;DHT22;34799;51.440;-2.534;2023-02-01T16:33:03;9.20;99.90
48988;DHT22;34799;51.440;-2.534;2023-02-01T16:35:36;9.20;99.90
48988;DHT22;34799;51.440;-2.534;2023-02-01T16:38:05;9.10;99.90
48988;DHT22;34799;51.440;-2.534;2023-02-01T16:40:39;9.20;99.90
48988;DHT22;34799;51.440;-2.534;2023-02-01T16:43:22;9.30;99.90
48988;DHT22;34799;51.440;-2.534;2023-02-01T16:45:52;9.30;99.90
48988;DHT22;34799;51.440;-2.534;2023-02-01T16:48:29;9.20;99.90
48988;DHT22;34799;51.440;-2.534;2023-02-01T16:50:57;9.20;99.90
48988;DHT22;34799;51.440;-2.534;2023-02-01T16:53:27;9.20;99.90
48988;DHT22;34799;51.440;-2.534;2023-02-01T16:55:55;9.20;99.90
48988;DHT22;34799;51.440;-2.534;2023-02-01T16:58:25;9.20;99.90
48988;DHT22;34799;51.440;-2.534;2023-02-01T17:00:54;9.30;99.90
48988;DHT22;34799;51.440;-2.534;2023-02-01T17:03:21;9.10;99.90
48988;DHT22;34799;51.440;-2.534;2023-02-01T17:05:51;9.10;99.90
48988;DHT22;34799;51.440;-2.534;2023-02-01T17:08:50;9.40;99.90
48988;DHT22;34799;51.440;-2.534;2023-02-01T17:11:17;9.00;99.90
48988;DHT22;34799;51.440;-2.534;2023-02-01T17:13:44;9.00;99.90
48988;DHT22;34799;51.440;-2.534;2023-02-01T17:18:42;9.00;99.90
48988;DHT22;34799;51.440;-2.534;2023-02-01T17:21:09;9.00;99.90
48988;DHT22;34799;51.440;-2.534;2023-02-01T17:23:37;9.10;99.90
48988;DHT22;34799;51.440;-2.534;2023-02-01T17:26:04;9.00;99.90
48988;DHT22;34799;51.440;-2.534;2023-02-01T17:28:33;8.90;99.90
48988;DHT22;34799;51.440;-2.534;2023-02-01T17:31:00;8.90;99.90
48988;DHT22;34799;51.440;-2.534;2023-02-01T17:33:31;8.90;99.90
48988;DHT22;34799;51.440;-2.534;2023-02-01T17:36:01;9.00;99.90
48988;DHT22;34799;51.440;-2.534;2023-02-01T17:38:28;8.90;99.90
48988;DHT22;34799;51.440;-2.534;2023-02-01T17:40:55;8.90;99.90
48988;DHT22;34799;51.440;-2.534;2023-02-01T17:43:25;8.90;99.90
48988;DHT22;34799;51.440;-2.534;2023-02-01T17:45:59;8.90;99.90
48988;DHT22;34799;51.440;-2.534;2023-02-01T17:48:28;8.90;99.90
48988;DHT22;34799;51.440;-2.534;2023-02-01T17:50:55;8.90;99.90
48988;DHT22;34799;51.440;-2.534;2023-02-01T17:53:26;8.90;99.90
48988;DHT22;34799;51.440;-2.534;2023-02-01T17:55:54;8.90;99.90
48988;DHT22;34799;51.440;-2.534;2023-02-01T17:58:24;8.90;99.90
48988;DHT22;34799;51.440;-2.534;2023-02-01T18:00:52;8.80;99.90
48988;DHT22;34799;51.440;-2.534;2023-02-01T18:03:26;8.80;99.90
48988;DHT22;34799;51.440;-2.534;2023-02-01T18:05:56;8.80;99.90
48988;DHT22;34799;51.440;-2.534;2023-02-01T18:08:26;8.80;99.90
48988;DHT22;34799;51.440;-2.534;2023-02-01T18:10:57;8.80;99.90
48988;DHT22;34799;51.440;-2.534;2023-02-01T18:13:28;8.80;99.90
48988;DHT22;34799;51.440;-2.534;2023-02-01T18:15:57;8.90;99.90
48988;DHT22;34799;51.440;-2.534;2023-02-01T18:18:25;8.90;99.90
48988;DHT22;34799;51.440;-2.534;2023-02-01T18:20:54;8.80;99.90
48988;DHT22;34799;51.440;-2.534;2023-02-01T18:23:23;9.10;99.90
48988;DHT22;34799;51.440;-2.534;2023-02-01T18:25:51;8.80;99.90
48988;DHT22;34799;51.440;-2.534;2023-02-01T18:28:19;8.80;99.90
48988;DHT22;34799;51.440;-2.534;2023-02-01T18:30:48;9.10;99.90
48988;DHT22;34799;51.440;-2.534;2023-02-01T18:33:19;8.80;99.90
48988;DHT22;34799;51.440;-2.534;2023-02-01T18:35:46;8.70;99.90
48988;DHT22;34799;51.440;-2.534;2023-02-01T18:38:13;9.40;99.90
48988;DHT22;34799;51.440;-2.534;2023-02-01T18:40:53;8.70;99.90
48988;DHT22;34799;51.440;-2.534;2023-02-01T18:43:23;8.70;99.90
48988;DHT22;34799;51.440;-2.534;2023-02-01T18:45:51;8.80;99.90